createdAt,value
2023-03-11T00:00:39.860Z,51.33
2023-03-11T00:03:08.851Z,48.55
2023-03-11T00:05:38.274Z,47.70
2023-03-11T00:08:06.155Z,43.53
2023-03-11T00:10:36.490Z,46.35
2023-03-11T00:13:04.720Z,44.28
2023-03-11T00:15:32.031Z,41.78
2023-03-11T00:17:59.366Z,44.08
2023-03-11T00:20:28.989Z,42.80
2023-03-11T00:22:56.177Z,44.20
2023-03-11T00:25:24.762Z,41.50
2023-03-11T00:27:51.417Z,44.88
2023-03-11T00:30:19.860Z,39.53
2023-03-11T00:32:51.673Z,37.85
2023-03-11T00:35:23.385Z,39.75
2023-03-11T00:37:54.102Z,36.35
2023-03-11T00:40:23.155Z,37.53
2023-03-11T00:42:49.659Z,39.58
2023-03-11T00:45:16.726Z,39.80
2023-03-11T00:47:43.550Z,37.72
2023-03-11T00:50:15.498Z,38.03
2023-03-11T00:52:42.030Z,35.95
2023-03-11T00:55:10.529Z,35.85
2023-03-11T00:57:37.066Z,35.35
2023-03-11T01:00:04.617Z,31.10
2023-03-11T01:02:31.232Z,30.58
2023-03-11T01:04:57.753Z,31.02
2023-03-11T01:07:24.261Z,31.02
2023-03-11T01:09:50.780Z,31.33
2023-03-11T01:12:17.344Z,29.35
2023-03-11T01:14:44.032Z,30.55
2023-03-11T01:17:10.714Z,29.75
2023-03-11T01:19:37.240Z,27.08
2023-03-11T01:22:04.002Z,26.98
2023-03-11T01:24:30.565Z,26.60
2023-03-11T01:26:57.144Z,27.20
2023-03-11T01:29:23.631Z,28.55
2023-03-11T01:31:50.161Z,26.95
2023-03-11T01:34:16.834Z,26.48
2023-03-11T01:36:43.356Z,27.88
2023-03-11T01:39:09.914Z,24.77
2023-03-11T01:41:36.514Z,22.85
2023-03-11T01:44:04.894Z,24.52
2023-03-11T01:46:37.373Z,23.33
2023-03-11T01:49:05.945Z,21.25
2023-03-11T01:51:36.992Z,22.52
2023-03-11T01:54:25.723Z,22.13
2023-03-11T01:56:53.331Z,22.25
2023-03-11T01:59:24.496Z,22.02
2023-03-11T02:01:58.725Z,19.75
2023-03-11T02:04:26.074Z,20.55
2023-03-11T02:06:54.157Z,21.10
2023-03-11T02:09:22.336Z,19.42
2023-03-11T02:11:48.872Z,16.58
2023-03-11T02:14:15.552Z,19.65
2023-03-11T02:16:42.053Z,17.63
2023-03-11T02:19:24.141Z,14.50
2023-03-11T02:21:51.478Z,18.38
2023-03-11T02:24:45.287Z,18.33
2023-03-11T02:27:13.977Z,17.55
2023-03-11T02:29:42.041Z,18.02
2023-03-11T02:32:10.276Z,16.25
2023-03-11T02:34:38.992Z,15.85
2023-03-11T02:37:08.901Z,16.70
2023-03-11T02:39:38.630Z,13.95
2023-03-11T02:42:14.217Z,16.40
2023-03-11T02:44:43.676Z,14.20
2023-03-11T02:47:10.695Z,16.00
2023-03-11T02:49:37.956Z,14.27
2023-03-11T02:52:05.029Z,15.90
2023-03-11T02:54:31.670Z,15.30
2023-03-11T02:56:58.290Z,15.00
2023-03-11T02:59:24.827Z,11.80
2023-03-11T03:01:51.297Z,12.77
2023-03-11T03:04:17.905Z,11.98
2023-03-11T03:06:44.416Z,11.90
2023-03-11T03:09:10.933Z,11.98
2023-03-11T03:11:37.498Z,11.93
2023-03-11T03:14:04.010Z,12.27
2023-03-11T03:16:30.618Z,12.23
2023-03-11T03:18:57.258Z,11.88
2023-03-11T03:21:23.834Z,11.48
2023-03-11T03:23:50.328Z,11.05
2023-03-11T03:26:16.847Z,10.80
2023-03-11T03:28:43.440Z,12.13
2023-03-11T03:31:11.002Z,11.60
2023-03-11T03:33:37.953Z,9.07
2023-03-11T03:36:09.849Z,8.85
2023-03-11T03:38:36.397Z,11.00
2023-03-11T03:41:03.044Z,10.57
2023-03-11T03:43:29.584Z,9.07
2023-03-11T03:46:06.186Z,10.43
2023-03-11T03:48:32.955Z,9.25
2023-03-11T03:51:08.428Z,8.80
2023-03-11T03:53:36.093Z,8.18
2023-03-11T03:56:08.538Z,8.65
2023-03-11T03:58:35.070Z,8.85
2023-03-11T04:01:02.162Z,8.02
2023-03-11T04:03:29.056Z,7.78
2023-03-11T04:06:06.245Z,8.98
2023-03-11T04:08:32.804Z,8.52
2023-03-11T04:10:59.345Z,6.55
2023-03-11T04:13:25.850Z,8.18
2023-03-11T04:15:52.391Z,8.15
2023-03-11T04:18:18.947Z,6.57
2023-03-11T04:20:46.477Z,5.97
2023-03-11T04:23:12.991Z,7.97
2023-03-11T04:25:39.525Z,5.20
2023-03-11T04:28:06.072Z,6.75
2023-03-11T04:30:32.663Z,5.55
2023-03-11T04:32:59.213Z,7.10
2023-03-11T04:35:25.749Z,7.38
2023-03-11T04:37:52.285Z,7.78
2023-03-11T04:40:18.880Z,6.28
2023-03-11T04:42:45.508Z,6.70
2023-03-11T04:45:12.190Z,6.38
2023-03-11T04:47:38.889Z,6.38
2023-03-11T04:50:06.042Z,6.65
2023-03-11T04:52:32.524Z,4.68
2023-03-11T04:54:59.029Z,5.90
2023-03-11T04:57:25.507Z,6.60
2023-03-11T04:59:51.978Z,5.93
2023-03-11T05:02:18.534Z,4.32
2023-03-11T05:04:45.411Z,4.47
2023-03-11T05:07:11.942Z,7.63
2023-03-11T05:09:38.826Z,4.70
2023-03-11T05:12:06.212Z,4.95
2023-03-11T05:14:32.848Z,4.43
2023-03-11T05:16:59.377Z,4.80
2023-03-11T05:19:32.289Z,5.18
2023-03-11T05:21:59.138Z,4.37
2023-03-11T05:24:26.211Z,4.80
2023-03-11T05:26:52.723Z,5.65
2023-03-11T05:29:19.493Z,3.63
2023-03-11T05:31:47.069Z,3.95
2023-03-11T05:34:14.322Z,4.90
2023-03-11T05:36:40.884Z,4.38
2023-03-11T05:39:07.661Z,3.42
2023-03-11T05:41:34.241Z,3.45
2023-03-11T05:44:00.761Z,4.15
2023-03-11T05:46:27.358Z,3.95
2023-03-11T05:48:54.071Z,4.30
2023-03-11T05:51:20.843Z,3.38
2023-03-11T05:53:48.760Z,3.65
2023-03-11T05:56:16.767Z,3.45
2023-03-11T05:58:43.666Z,6.05
2023-03-11T06:01:15.686Z,3.13
2023-03-11T06:03:43.089Z,3.10
2023-03-11T06:06:12.343Z,4.13
2023-03-11T06:08:39.332Z,2.83
2023-03-11T06:11:08.434Z,3.58
2023-03-11T06:13:35.987Z,2.65
2023-03-11T06:16:02.613Z,3.80
2023-03-11T06:18:29.134Z,4.32
2023-03-11T06:20:58.575Z,3.80
2023-03-11T06:23:25.490Z,3.28
2023-03-11T06:26:02.768Z,3.17
2023-03-11T06:28:30.149Z,3.42
2023-03-11T06:30:58.741Z,3.08
2023-03-11T06:33:25.808Z,2.15
2023-03-11T06:35:59.771Z,2.35
2023-03-11T06:38:27.194Z,2.42
2023-03-11T06:40:53.823Z,4.03
2023-03-11T06:43:22.181Z,2.42
2023-03-11T06:45:48.772Z,3.63
2023-03-11T06:48:15.378Z,3.53
2023-03-11T06:50:41.866Z,3.83
2023-03-11T06:53:08.394Z,2.35
2023-03-11T06:55:35.636Z,2.40
2023-03-11T06:58:02.573Z,3.90
2023-03-11T07:00:31.123Z,2.42
2023-03-11T07:02:57.969Z,2.45
2023-03-11T07:05:24.488Z,2.60
2023-03-11T07:07:54.504Z,3.67
2023-03-11T07:10:21.105Z,2.40
2023-03-11T07:12:47.632Z,2.70
2023-03-11T07:15:14.356Z,1.88
2023-03-11T07:17:40.886Z,2.15
2023-03-11T07:20:08.043Z,3.05
2023-03-11T07:22:34.537Z,3.42
2023-03-11T07:25:01.077Z,2.45
2023-03-11T07:27:28.185Z,3.40
2023-03-11T07:29:54.703Z,3.33
2023-03-11T07:32:21.260Z,4.18
2023-03-11T07:34:47.884Z,2.90
2023-03-11T07:37:14.447Z,3.70
2023-03-11T07:39:41.018Z,2.40
2023-03-11T07:42:07.709Z,3.13
2023-03-11T07:44:34.288Z,5.50
2023-03-11T07:47:06.010Z,3.15
2023-03-11T07:49:32.708Z,6.28
2023-03-11T07:51:59.207Z,6.07
2023-03-11T07:54:25.782Z,4.85
2023-03-11T07:56:52.299Z,10.30
2023-03-11T07:59:18.827Z,10.52
2023-03-11T08:01:47.245Z,11.57
2023-03-11T08:04:16.856Z,10.60
2023-03-11T08:06:46.282Z,11.38
2023-03-11T08:09:13.590Z,14.13
2023-03-11T08:11:40.536Z,15.77
2023-03-11T08:14:07.262Z,14.85
2023-03-11T08:16:33.956Z,12.52
2023-03-11T08:19:00.495Z,12.23
2023-03-11T08:21:31.801Z,11.75
2023-03-11T08:24:00.658Z,12.57
2023-03-11T08:26:28.052Z,11.52
2023-03-11T08:28:56.172Z,15.15
2023-03-11T08:31:31.421Z,14.23
2023-03-11T08:34:01.083Z,16.20
2023-03-11T08:36:27.793Z,17.13
2023-03-11T08:38:54.367Z,15.80
2023-03-11T08:41:20.903Z,15.70
2023-03-11T08:43:47.507Z,16.13
2023-03-11T08:46:22.823Z,15.02
2023-03-11T08:48:49.463Z,16.77
2023-03-11T08:51:16.292Z,17.90
2023-03-11T08:53:42.784Z,17.60
2023-03-11T08:56:09.544Z,18.45
2023-03-11T08:58:36.327Z,17.55
2023-03-11T09:01:03.881Z,18.17
2023-03-11T09:03:36.490Z,18.23
2023-03-11T09:06:06.088Z,18.55
2023-03-11T09:08:32.779Z,17.88
2023-03-11T09:10:59.353Z,17.88
2023-03-11T09:13:25.983Z,19.23
2023-03-11T09:15:53.488Z,16.45
2023-03-11T09:18:20.518Z,17.17
2023-03-11T09:20:47.151Z,16.33
2023-03-11T09:23:16.039Z,17.10
2023-03-11T09:25:42.832Z,16.52
2023-03-11T09:28:09.398Z,19.05
2023-03-11T09:30:36.060Z,16.08
2023-03-11T09:33:02.589Z,15.82
2023-03-11T09:35:29.179Z,18.95
2023-03-11T09:37:55.814Z,17.35
2023-03-11T09:40:25.628Z,17.15
2023-03-11T09:42:54.924Z,17.65
2023-03-11T09:45:29.920Z,16.30
2023-03-11T09:48:30.499Z,15.43
2023-03-11T09:51:03.145Z,15.38
2023-03-11T09:53:44.556Z,16.92
2023-03-11T09:56:15.096Z,16.52
2023-03-11T09:58:50.590Z,15.82
2023-03-11T10:01:33.287Z,15.38
2023-03-11T10:04:13.092Z,14.93
2023-03-11T10:06:41.803Z,16.00
2023-03-11T10:09:26.692Z,14.63
2023-03-11T10:12:08.578Z,15.55
2023-03-11T10:14:44.492Z,15.38
2023-03-11T10:17:35.051Z,15.90
2023-03-11T10:20:30.703Z,20.70
2023-03-11T10:23:25.216Z,16.42
2023-03-11T10:25:54.443Z,18.05
2023-03-11T10:28:25.129Z,13.73
2023-03-11T10:30:57.702Z,15.95
2023-03-11T10:33:32.125Z,17.85
2023-03-11T10:36:03.805Z,15.35
2023-03-11T10:38:39.447Z,18.75
2023-03-11T10:41:22.011Z,16.27
2023-03-11T10:44:00.089Z,18.42
2023-03-11T10:46:28.278Z,16.83
2023-03-11T10:48:55.382Z,18.05
2023-03-11T10:51:26.619Z,19.10
2023-03-11T10:53:56.005Z,24.42
2023-03-11T10:56:35.874Z,20.02
2023-03-11T10:59:04.386Z,18.77
2023-03-11T11:01:31.237Z,17.85
2023-03-11T11:04:01.034Z,17.30
2023-03-11T11:06:35.043Z,16.33
2023-03-11T11:09:06.435Z,18.52
2023-03-11T11:11:36.688Z,18.90
2023-03-11T11:14:03.288Z,18.08
2023-03-11T11:16:30.249Z,18.48
2023-03-11T11:19:07.878Z,19.55
2023-03-11T11:21:41.314Z,20.20
2023-03-11T11:24:28.371Z,20.10
2023-03-11T11:27:21.853Z,23.45
2023-03-11T11:30:10.440Z,24.75
2023-03-11T11:32:37.574Z,26.60
2023-03-11T11:35:07.287Z,29.02
2023-03-11T11:37:39.899Z,23.42
2023-03-11T11:40:15.766Z,25.80
2023-03-11T11:42:56.897Z,25.65
2023-03-11T11:45:35.879Z,27.40
2023-03-11T11:48:21.952Z,30.27
2023-03-11T11:50:55.703Z,30.55
2023-03-11T11:55:54.775Z,31.80
2023-03-11T11:58:22.187Z,36.38
2023-03-11T12:01:36.362Z,32.08
2023-03-11T12:04:12.180Z,31.02
2023-03-11T12:06:44.472Z,34.85
2023-03-11T12:09:10.996Z,35.78
2023-03-11T12:12:05.171Z,32.80
2023-03-11T12:14:48.285Z,34.75
2023-03-11T12:17:17.902Z,38.97
2023-03-11T12:19:57.446Z,34.45
2023-03-11T12:22:42.007Z,28.50
2023-03-11T12:25:14.283Z,36.20
2023-03-11T12:27:50.070Z,47.70
2023-03-11T12:30:27.180Z,49.83
2023-03-11T12:33:01.908Z,43.08
2023-03-11T12:35:34.497Z,42.60
2023-03-11T12:38:13.165Z,43.88
2023-03-11T12:40:42.372Z,41.50
2023-03-11T12:43:30.029Z,36.17
2023-03-11T12:46:01.341Z,34.45
2023-03-11T12:48:27.837Z,35.55
2023-03-11T12:50:54.918Z,34.97
2023-03-11T12:53:42.664Z,34.75
2023-03-11T12:56:30.838Z,38.70
2023-03-11T12:59:22.205Z,32.67
2023-03-11T13:02:10.000Z,35.13
2023-03-11T13:04:54.110Z,30.00
2023-03-11T13:07:25.775Z,30.20
2023-03-11T13:10:33.559Z,33.10
2023-03-11T13:13:00.822Z,30.38
2023-03-11T13:15:36.963Z,30.55
2023-03-11T13:18:12.444Z,29.45
2023-03-11T13:20:39.226Z,27.85
2023-03-11T13:23:21.906Z,26.92
2023-03-11T13:25:49.785Z,27.73
2023-03-11T13:28:37.504Z,22.55
2023-03-11T13:31:17.771Z,23.98
2023-03-11T13:33:55.618Z,23.88
2023-03-11T13:36:40.368Z,20.92
2023-03-11T13:39:31.013Z,20.55
2023-03-11T13:41:57.727Z,21.67
2023-03-11T13:44:24.258Z,23.08
2023-03-11T13:46:57.094Z,19.50
2023-03-11T13:49:31.089Z,21.77
2023-03-11T13:51:59.271Z,21.55
2023-03-11T13:55:04.734Z,18.33
2023-03-11T13:57:33.562Z,18.92
2023-03-11T14:00:18.102Z,16.70
2023-03-11T14:02:55.429Z,19.98
2023-03-11T14:05:30.085Z,18.85
2023-03-11T14:08:12.502Z,17.42
2023-03-11T14:10:39.449Z,19.77
2023-03-11T14:13:14.242Z,17.73
2023-03-11T14:15:47.838Z,16.92
2023-03-11T14:18:29.600Z,15.15
2023-03-11T14:20:57.252Z,16.23
2023-03-11T14:23:28.902Z,16.25
2023-03-11T14:26:04.950Z,17.15
2023-03-11T14:28:35.115Z,18.70
2023-03-11T14:31:03.491Z,14.05
2023-03-11T14:33:30.135Z,16.83
2023-03-11T14:36:00.001Z,13.32
2023-03-11T14:38:29.836Z,13.88
2023-03-11T14:41:06.860Z,14.02
2023-03-11T14:43:37.470Z,15.82
2023-03-11T14:46:05.980Z,14.60
2023-03-11T14:48:39.062Z,16.50
2023-03-11T14:51:22.412Z,16.88
2023-03-11T14:54:15.547Z,17.10
2023-03-11T14:56:47.576Z,16.05
2023-03-11T14:59:26.859Z,18.00
2023-03-11T15:01:57.518Z,15.50
2023-03-11T15:04:27.467Z,18.48
2023-03-11T15:06:55.100Z,16.05
2023-03-11T15:09:23.921Z,15.63
2023-03-11T15:11:57.443Z,15.15
2023-03-11T15:14:23.982Z,12.85
2023-03-11T15:16:52.177Z,12.77
2023-03-11T15:19:27.709Z,14.43
2023-03-11T15:21:58.588Z,16.90
2023-03-11T15:24:28.314Z,11.82
2023-03-11T15:27:02.287Z,10.93
2023-03-11T15:29:30.743Z,13.45
2023-03-11T15:31:58.813Z,12.15
2023-03-11T15:34:33.439Z,13.25
2023-03-11T15:37:20.501Z,13.43
2023-03-11T15:39:51.060Z,12.98
2023-03-11T15:42:24.393Z,13.82
2023-03-11T15:45:19.785Z,14.25
2023-03-11T15:47:48.829Z,16.40
2023-03-11T15:50:50.634Z,16.35
2023-03-11T15:53:20.095Z,17.15
2023-03-11T15:55:47.443Z,18.92
2023-03-11T15:58:19.255Z,17.48
2023-03-11T16:00:51.476Z,19.67
2023-03-11T16:03:18.620Z,20.35
2023-03-11T16:05:45.563Z,24.23
2023-03-11T16:08:12.428Z,26.20
2023-03-11T16:10:40.720Z,23.60
2023-03-11T16:13:11.933Z,20.63
2023-03-11T16:15:38.766Z,21.08
2023-03-11T16:18:08.654Z,20.33
2023-03-11T16:20:49.800Z,19.98
2023-03-11T16:23:21.138Z,21.27
2023-03-11T16:25:48.666Z,22.02
2023-03-11T16:28:17.004Z,22.83
2023-03-11T16:30:44.059Z,24.50
2023-03-11T16:33:10.765Z,20.23
2023-03-11T16:35:38.087Z,22.58
2023-03-11T16:38:04.716Z,19.20
2023-03-11T16:40:32.656Z,23.65
2023-03-11T16:43:04.733Z,20.33
2023-03-11T16:45:31.529Z,24.15
2023-03-11T16:47:58.275Z,24.58
2023-03-11T16:50:24.932Z,21.83
2023-03-11T16:52:55.361Z,20.52
2023-03-11T16:55:22.569Z,24.98
2023-03-11T16:57:49.163Z,26.17
2023-03-11T17:00:17.961Z,25.50
2023-03-11T17:02:45.273Z,25.73
2023-03-11T17:05:11.851Z,19.58
2023-03-11T17:07:40.051Z,25.05
2023-03-11T17:10:08.454Z,26.13
2023-03-11T17:12:36.027Z,23.60
2023-03-11T17:15:04.045Z,22.88
2023-03-11T17:17:30.605Z,26.73
2023-03-11T17:19:57.132Z,27.08
2023-03-11T17:22:23.738Z,25.02
2023-03-11T17:24:50.241Z,26.58
2023-03-11T17:27:16.757Z,32.42
2023-03-11T17:29:43.333Z,30.98
2023-03-11T17:32:16.797Z,28.88
2023-03-11T17:34:43.705Z,29.30
2023-03-11T17:37:10.306Z,35.83
2023-03-11T17:39:36.862Z,27.15
2023-03-11T17:42:03.485Z,30.10
2023-03-11T17:44:35.401Z,29.85
2023-03-11T17:47:11.299Z,28.65
2023-03-11T17:49:37.967Z,26.75
2023-03-11T17:52:04.896Z,29.98
2023-03-11T17:54:31.787Z,28.75
2023-03-11T17:56:58.373Z,28.83
2023-03-11T17:59:24.884Z,31.48
2023-03-11T18:01:51.595Z,27.25
2023-03-11T18:04:18.210Z,30.25
2023-03-11T18:06:44.717Z,26.33
2023-03-11T18:09:11.378Z,30.15
2023-03-11T18:11:38.007Z,29.80
2023-03-11T18:14:04.599Z,31.08
2023-03-11T18:16:32.156Z,32.17
2023-03-11T18:18:58.782Z,31.65
2023-03-11T18:21:28.043Z,32.72
2023-03-11T18:24:00.054Z,30.52
2023-03-11T18:26:28.939Z,30.25
2023-03-11T18:28:56.982Z,30.58
2023-03-11T18:31:24.806Z,30.60
2023-03-11T18:33:57.259Z,25.33
2023-03-11T18:36:29.310Z,29.60
2023-03-11T18:38:58.208Z,28.98
2023-03-11T18:41:26.196Z,27.70
2023-03-11T18:43:59.803Z,26.70
2023-03-11T18:46:33.602Z,26.05
2023-03-11T18:49:02.450Z,25.75
2023-03-11T18:51:31.467Z,25.77
2023-03-11T18:53:59.244Z,27.83
2023-03-11T18:56:26.997Z,26.63
2023-03-11T18:58:55.300Z,27.10
2023-03-11T19:01:22.175Z,24.13
2023-03-11T19:03:52.137Z,25.00
2023-03-11T19:06:19.374Z,26.40
2023-03-11T19:08:45.923Z,27.67
2023-03-11T19:11:18.642Z,27.58
2023-03-11T19:13:47.296Z,28.08
2023-03-11T19:16:20.114Z,25.17
2023-03-11T19:18:47.189Z,28.52
2023-03-11T19:21:14.956Z,28.45
2023-03-11T19:23:41.665Z,25.23
2023-03-11T19:26:08.469Z,24.55
2023-03-11T19:28:35.534Z,26.27
2023-03-11T19:31:02.528Z,25.90
2023-03-11T19:33:29.187Z,27.88
2023-03-11T19:35:58.213Z,27.10
2023-03-11T19:38:28.826Z,29.42
2023-03-11T19:41:00.504Z,24.63
2023-03-11T19:43:27.788Z,23.88
2023-03-11T19:45:54.344Z,27.75
2023-03-11T19:48:20.953Z,26.15
2023-03-11T19:50:49.262Z,30.38
2023-03-11T19:53:16.806Z,27.85
2023-03-11T19:55:48.171Z,25.63
2023-03-11T19:58:14.896Z,25.85
2023-03-11T20:00:42.854Z,29.20
2023-03-11T20:03:16.525Z,25.52
2023-03-11T20:08:13.032Z,25.38
2023-03-11T20:10:44.834Z,28.67
2023-03-11T20:13:12.094Z,27.35
2023-03-11T20:15:38.736Z,24.63
2023-03-11T20:18:06.230Z,22.52
2023-03-11T20:20:34.322Z,22.00
2023-03-11T20:23:02.033Z,24.98
2023-03-11T20:25:32.256Z,22.10
2023-03-11T20:28:00.302Z,23.05
2023-03-11T20:30:28.280Z,21.42
2023-03-11T20:32:55.458Z,24.33
2023-03-11T20:35:22.322Z,24.60
2023-03-11T20:37:48.949Z,20.20
2023-03-11T20:40:17.357Z,19.02
2023-03-11T20:42:46.863Z,18.80
2023-03-11T20:45:21.559Z,21.02
2023-03-11T20:47:49.360Z,20.05
2023-03-11T20:50:16.668Z,17.13
2023-03-11T20:52:43.256Z,18.92
2023-03-11T20:55:10.662Z,21.27
2023-03-11T20:57:38.416Z,22.38
2023-03-11T21:00:11.602Z,21.67
2023-03-11T21:02:43.037Z,21.67
2023-03-11T21:05:10.545Z,18.23
2023-03-11T21:07:37.303Z,21.55
2023-03-11T21:10:10.162Z,18.65
2023-03-11T21:12:36.701Z,20.53
2023-03-11T21:15:03.878Z,22.90
2023-03-11T21:17:30.740Z,20.58
2023-03-11T21:19:57.415Z,18.58
2023-03-11T21:22:23.956Z,19.27
2023-03-11T21:24:54.107Z,18.30
2023-03-11T21:27:26.053Z,21.30
2023-03-11T21:29:53.955Z,22.70
2023-03-11T21:32:20.638Z,19.77
2023-03-11T21:34:47.474Z,21.30
2023-03-11T21:37:14.297Z,19.90
2023-03-11T21:39:40.927Z,19.90
2023-03-11T21:42:07.680Z,21.75
2023-03-11T21:44:34.384Z,23.38
2023-03-11T21:47:00.977Z,24.52
2023-03-11T21:49:27.540Z,23.20
2023-03-11T21:51:54.199Z,24.30
2023-03-11T21:54:20.737Z,23.67
2023-03-11T21:56:47.293Z,27.98
2023-03-11T21:59:14.044Z,25.52
2023-03-11T22:01:40.770Z,23.83
2023-03-11T22:04:07.538Z,27.20
2023-03-11T22:06:34.341Z,26.77
2023-03-11T22:09:01.412Z,26.50
2023-03-11T22:11:28.493Z,26.25
2023-03-11T22:13:57.246Z,24.08
2023-03-11T22:16:25.159Z,27.00
2023-03-11T22:18:53.142Z,28.55
2023-03-11T22:21:20.697Z,27.33
2023-03-11T22:23:48.000Z,25.55
2023-03-11T22:26:15.780Z,25.90
2023-03-11T22:28:42.752Z,26.98
2023-03-11T22:31:11.692Z,26.95
2023-03-11T22:33:38.385Z,27.70
2023-03-11T22:36:05.994Z,25.10
2023-03-11T22:38:34.087Z,26.48
2023-03-11T22:41:00.672Z,24.67
2023-03-11T22:43:27.530Z,22.02
2023-03-11T22:45:54.305Z,26.00
2023-03-11T22:48:20.922Z,27.75
2023-03-11T22:50:47.535Z,25.95
2023-03-11T22:53:15.525Z,20.85
2023-03-11T22:55:43.582Z,24.58
2023-03-11T22:58:11.043Z,22.58
2023-03-11T23:00:37.882Z,25.25
2023-03-11T23:03:04.601Z,22.13
2023-03-11T23:05:31.364Z,24.52
2023-03-11T23:07:57.935Z,21.85
2023-03-11T23:10:24.428Z,22.17
2023-03-11T23:12:50.947Z,22.77
2023-03-11T23:15:19.213Z,23.00
2023-03-11T23:17:45.773Z,24.23
2023-03-11T23:20:15.144Z,25.55
2023-03-11T23:22:42.396Z,22.70
2023-03-11T23:25:13.069Z,22.20
2023-03-11T23:27:39.847Z,23.27
2023-03-11T23:30:07.408Z,20.88
2023-03-11T23:32:34.470Z,21.33
2023-03-11T23:35:01.017Z,21.52
2023-03-11T23:37:27.558Z,22.08
2023-03-11T23:39:54.059Z,23.73
2023-03-11T23:42:25.742Z,21.25
2023-03-11T23:44:53.290Z,18.52
2023-03-11T23:47:19.916Z,20.42
2023-03-11T23:49:46.436Z,20.75
2023-03-11T23:52:13.003Z,20.58
2023-03-11T23:54:39.502Z,18.65
2023-03-11T23:57:06.017Z,17.65
2023-03-11T23:59:32.627Z,17.83
